createdAt,value
2019-01-19T00:00:57.546Z,-0.10
2019-01-19T00:03:49.825Z,-0.10
2019-01-19T00:06:39.339Z,-0.10
2019-01-19T00:09:17.012Z,-0.20
2019-01-19T00:12:05.053Z,-0.20
2019-01-19T00:14:33.677Z,-0.20
2019-01-19T00:17:27.481Z,-0.20
2019-01-19T00:20:10.848Z,-0.20
2019-01-19T00:22:48.477Z,-0.20
2019-01-19T00:25:37.946Z,-0.20
2019-01-19T00:28:24.656Z,-0.20
2019-01-19T00:31:07.448Z,-0.30
2019-01-19T00:33:47.694Z,-0.30
2019-01-19T00:36:22.225Z,-0.30
2019-01-19T00:39:08.735Z,-0.30
2019-01-19T00:41:58.101Z,-0.30
2019-01-19T00:44:29.753Z,-0.30
2019-01-19T00:47:09.969Z,-0.30
2019-01-19T00:49:40.281Z,-0.30
2019-01-19T00:52:26.816Z,-0.20
2019-01-19T00:55:16.110Z,-0.20
2019-01-19T00:58:02.441Z,-0.30
2019-01-19T01:00:39.860Z,-0.30
2019-01-19T01:03:14.412Z,-0.30
2019-01-19T01:05:46.064Z,-0.30
2019-01-19T01:08:41.645Z,-0.30
2019-01-19T01:11:28.456Z,-0.30
2019-01-19T01:14:00.129Z,-0.60
2019-01-19T01:16:37.446Z,-0.50
2019-01-19T01:19:11.854Z,-0.50
2019-01-19T01:22:04.038Z,-0.50
2019-01-19T01:24:44.577Z,-0.50
2019-01-19T01:27:25.232Z,-0.40
2019-01-19T01:30:08.293Z,-0.40
2019-01-19T01:32:39.940Z,-0.40
2019-01-19T01:35:35.597Z,-0.40
2019-01-19T01:38:07.240Z,-0.40
2019-01-19T01:40:53.376Z,-0.40
2019-01-19T01:43:30.885Z,-0.40
2019-01-19T01:46:05.462Z,-0.40
2019-01-19T01:48:39.692Z,-0.40
2019-01-19T01:51:29.517Z,-0.40
2019-01-19T01:54:17.509Z,-0.50
2019-01-19T01:56:46.081Z,-0.50
2019-01-19T01:59:23.361Z,-0.50
2019-01-19T02:02:11.489Z,-0.50
2019-01-19T02:04:59.766Z,-0.60
2019-01-19T02:07:31.406Z,-0.60
2019-01-19T02:10:30.097Z,-0.70
2019-01-19T02:13:07.261Z,-0.60
2019-01-19T02:15:38.912Z,-0.70
2019-01-19T02:18:13.410Z,-0.70
2019-01-19T02:21:19.137Z,-0.60
2019-01-19T02:24:09.765Z,-0.60
2019-01-19T02:26:50.160Z,-0.60
2019-01-19T02:29:21.801Z,-0.50
2019-01-19T02:32:07.914Z,-0.50
2019-01-19T02:34:48.104Z,-0.50
2019-01-19T02:37:31.195Z,-0.50
2019-01-19T02:40:17.412Z,-0.50
2019-01-19T02:42:49.085Z,-0.60
2019-01-19T02:45:36.801Z,-0.60
2019-01-19T02:48:24.971Z,-0.50
2019-01-19T02:51:12.813Z,-0.60
2019-01-19T02:54:02.586Z,-0.60
2019-01-19T02:56:50.797Z,-0.60
2019-01-19T02:59:27.889Z,-0.60
2019-01-19T03:02:02.496Z,-0.70
2019-01-19T03:04:39.622Z,-0.70
2019-01-19T03:07:31.898Z,-0.70
2019-01-19T03:10:20.961Z,-0.70
2019-01-19T03:13:07.152Z,-0.70
2019-01-19T03:15:57.384Z,-0.70
2019-01-19T03:18:34.431Z,-0.70
2019-01-19T03:21:06.091Z,-0.70
2019-01-19T03:23:40.501Z,-0.70
2019-01-19T03:26:31.257Z,-0.70
2019-01-19T03:29:17.407Z,-0.80
2019-01-19T03:32:07.049Z,-0.70
2019-01-19T03:34:59.746Z,-0.80
2019-01-19T03:37:43.435Z,-0.80
2019-01-19T03:40:20.347Z,-0.90
2019-01-19T03:42:57.567Z,-0.90
2019-01-19T03:45:45.469Z,-0.90
2019-01-19T03:48:25.606Z,-0.90
2019-01-19T03:51:12.234Z,-0.90
2019-01-19T03:53:58.496Z,-0.90
2019-01-19T03:56:42.245Z,-0.90
2019-01-19T03:59:32.004Z,-0.90
2019-01-19T04:02:06.287Z,-0.90
2019-01-19T04:04:52.909Z,-0.90
2019-01-19T04:07:27.394Z,-0.90
2019-01-19T04:10:04.970Z,-0.90
2019-01-19T04:12:48.190Z,-0.90
2019-01-19T04:15:25.993Z,-0.90
2019-01-19T04:18:06.193Z,-0.90
2019-01-19T04:20:58.767Z,-0.80
2019-01-19T04:23:27.333Z,-0.90
2019-01-19T04:25:59.409Z,-0.90
2019-01-19T04:28:28.154Z,-0.90
2019-01-19T04:30:56.712Z,-0.90
2019-01-19T04:33:25.323Z,-0.90
2019-01-19T04:35:53.920Z,-0.90
2019-01-19T04:38:22.533Z,-0.80
2019-01-19T04:40:51.418Z,-0.90
2019-01-19T04:43:19.991Z,-0.90
2019-01-19T04:45:48.562Z,-0.90
2019-01-19T04:48:18.822Z,-0.90
2019-01-19T04:50:47.398Z,-0.90
2019-01-19T04:53:15.969Z,-0.90
2019-01-19T04:55:44.670Z,-0.90
2019-01-19T04:58:13.245Z,-0.90
2019-01-19T05:00:42.371Z,-0.90
2019-01-19T05:03:10.991Z,-0.90
2019-01-19T05:05:39.570Z,-0.90
2019-01-19T05:08:08.130Z,-0.90
2019-01-19T05:10:36.741Z,-0.90
2019-01-19T05:13:05.314Z,-0.90
2019-01-19T05:15:33.875Z,-0.90
2019-01-19T05:18:02.837Z,-0.90
2019-01-19T05:20:31.406Z,-0.90
2019-01-19T05:22:59.978Z,-0.90
2019-01-19T05:25:28.588Z,-1.00
2019-01-19T05:27:57.156Z,-1.00
2019-01-19T05:30:25.793Z,-1.00
2019-01-19T05:32:54.412Z,-1.00
2019-01-19T05:35:22.981Z,-1.00
2019-01-19T05:37:51.548Z,-1.00
2019-01-19T05:40:20.161Z,-1.00
2019-01-19T05:42:48.735Z,-1.00
2019-01-19T05:45:17.373Z,-1.00
2019-01-19T05:47:45.984Z,-0.90
2019-01-19T05:50:16.908Z,-1.00
2019-01-19T05:52:45.543Z,-1.00
2019-01-19T05:55:14.172Z,-1.00
2019-01-19T05:57:43.109Z,-1.10
2019-01-19T06:00:20.909Z,-1.10
2019-01-19T06:02:49.632Z,-1.00
2019-01-19T06:05:18.651Z,-1.00
2019-01-19T06:07:47.335Z,-1.00
2019-01-19T06:10:17.145Z,-1.00
2019-01-19T06:12:45.856Z,-1.00
2019-01-19T06:15:15.917Z,-1.00
2019-01-19T06:17:44.491Z,-1.00
2019-01-19T06:20:16.884Z,-1.00
2019-01-19T06:22:45.639Z,-1.00
2019-01-19T06:25:16.857Z,-1.10
2019-01-19T06:27:45.588Z,-1.10
2019-01-19T06:30:17.032Z,-1.10
2019-01-19T06:32:45.584Z,-1.10
2019-01-19T06:35:14.360Z,-1.00
2019-01-19T06:37:43.073Z,-0.90
2019-01-19T06:40:16.217Z,-0.90
2019-01-19T06:42:44.785Z,-0.90
2019-01-19T06:45:16.516Z,-0.90
2019-01-19T06:47:45.128Z,-0.90
2019-01-19T06:50:16.165Z,-1.00
2019-01-19T06:52:44.922Z,-1.00
2019-01-19T06:55:17.418Z,-1.00
2019-01-19T06:57:45.988Z,-0.90
2019-01-19T07:00:16.741Z,-0.90
2019-01-19T07:02:45.646Z,-0.90
2019-01-19T07:05:14.937Z,-1.00
2019-01-19T07:07:44.532Z,-0.90
2019-01-19T07:10:18.581Z,-0.90
2019-01-19T07:12:47.205Z,-1.00
2019-01-19T07:15:15.841Z,-1.00
2019-01-19T07:17:44.665Z,-1.00
2019-01-19T07:20:18.878Z,-1.00
2019-01-19T07:22:47.527Z,-0.90
2019-01-19T07:25:16.101Z,-1.00
2019-01-19T07:27:44.850Z,-0.90
2019-01-19T07:30:17.473Z,-0.90
2019-01-19T07:32:46.981Z,-0.90
2019-01-19T07:35:16.262Z,-0.90
2019-01-19T07:37:45.055Z,-0.80
2019-01-19T07:40:15.585Z,-0.70
2019-01-19T07:42:45.705Z,-0.70
2019-01-19T07:45:15.728Z,-0.70
2019-01-19T07:47:45.547Z,-0.60
2019-01-19T07:50:18.828Z,-0.60
2019-01-19T07:52:47.562Z,-0.60
2019-01-19T07:55:17.567Z,-0.60
2019-01-19T07:57:46.590Z,-0.60
2019-01-19T08:00:23.407Z,-0.60
2019-01-19T08:02:52.055Z,-0.60
2019-01-19T08:05:20.749Z,-0.50
2019-01-19T08:07:49.313Z,-0.40
2019-01-19T08:10:19.225Z,-0.30
2019-01-19T08:12:48.017Z,-0.20
2019-01-19T08:15:25.104Z,-0.20
2019-01-19T08:17:53.676Z,-0.10
2019-01-19T08:20:22.358Z,-0.10
2019-01-19T08:22:50.996Z,0.00
2019-01-19T08:25:19.633Z,0.00
2019-01-19T08:27:48.225Z,0.00
2019-01-19T08:30:19.230Z,0.00
2019-01-19T08:32:47.905Z,0.10
2019-01-19T08:35:17.795Z,0.10
2019-01-19T08:37:47.000Z,0.20
2019-01-19T08:40:27.263Z,0.20
2019-01-19T08:42:57.513Z,0.30
2019-01-19T08:45:26.150Z,0.30
2019-01-19T08:47:54.713Z,0.40
2019-01-19T08:50:23.309Z,0.40
2019-01-19T08:52:51.923Z,0.40
2019-01-19T08:55:20.623Z,0.40
2019-01-19T08:57:49.225Z,0.50
2019-01-19T09:00:19.341Z,0.80
2019-01-19T09:02:47.897Z,0.90
2019-01-19T09:05:16.870Z,0.90
2019-01-19T09:07:45.425Z,1.00
2019-01-19T09:10:16.040Z,1.10
2019-01-19T09:12:44.637Z,1.10
2019-01-19T09:15:15.805Z,1.20
2019-01-19T09:17:44.564Z,1.40
2019-01-19T09:20:15.662Z,1.60
2019-01-19T09:22:44.960Z,1.90
2019-01-19T09:25:15.360Z,2.20
2019-01-19T09:27:44.052Z,2.40
2019-01-19T09:30:23.603Z,2.70
2019-01-19T09:32:52.216Z,3.10
2019-01-19T09:35:20.920Z,3.00
2019-01-19T09:37:49.493Z,2.70
2019-01-19T09:40:18.842Z,2.80
2019-01-19T09:42:47.614Z,2.80
2019-01-19T09:45:17.816Z,2.90
2019-01-19T09:47:47.294Z,2.90
2019-01-19T09:50:17.351Z,2.90
2019-01-19T09:52:46.232Z,3.10
2019-01-19T09:55:14.890Z,3.40
2019-01-19T09:57:43.557Z,3.50
2019-01-19T10:00:15.144Z,3.60
2019-01-19T10:02:43.825Z,3.70
2019-01-19T10:05:24.158Z,3.50
2019-01-19T10:07:53.088Z,3.90
2019-01-19T10:10:21.720Z,3.80
2019-01-19T10:12:50.456Z,3.90
2019-01-19T10:15:20.266Z,4.10
2019-01-19T10:17:48.892Z,4.10
2019-01-19T10:20:26.296Z,4.00
2019-01-19T10:22:54.979Z,4.20
2019-01-19T10:25:23.532Z,4.30
2019-01-19T10:27:52.160Z,4.40
2019-01-19T10:30:28.256Z,4.50
2019-01-19T10:32:56.891Z,4.60
2019-01-19T10:35:25.530Z,4.80
2019-01-19T10:37:56.632Z,5.00
2019-01-19T10:40:24.490Z,5.10
2019-01-19T10:42:53.128Z,5.20
2019-01-19T10:45:26.516Z,5.20
2019-01-19T10:47:55.189Z,5.50
2019-01-19T10:50:23.893Z,5.10
2019-01-19T10:52:52.604Z,5.00
2019-01-19T10:55:24.860Z,5.10
2019-01-19T10:57:53.498Z,5.40
2019-01-19T11:00:27.226Z,5.50
2019-01-19T11:02:56.549Z,5.60
2019-01-19T11:05:25.269Z,5.70
2019-01-19T11:07:54.014Z,5.80
2019-01-19T11:10:27.452Z,5.90
2019-01-19T11:12:56.239Z,6.00
2019-01-19T11:15:24.861Z,5.80
2019-01-19T11:17:53.419Z,5.80
2019-01-19T11:20:25.669Z,5.70
2019-01-19T11:22:54.876Z,5.60
2019-01-19T11:25:23.508Z,5.50
2019-01-19T11:27:52.194Z,5.60
2019-01-19T11:30:25.407Z,5.70
2019-01-19T11:32:54.044Z,5.70
2019-01-19T11:35:22.734Z,5.60
2019-01-19T11:37:51.361Z,5.50
2019-01-19T11:40:25.477Z,5.40
2019-01-19T11:42:54.075Z,5.50
2019-01-19T11:45:23.408Z,5.40
2019-01-19T11:47:52.143Z,5.40
2019-01-19T11:50:20.709Z,5.40
2019-01-19T11:52:49.905Z,5.40
2019-01-19T11:55:19.768Z,5.40
2019-01-19T11:57:50.474Z,5.40
2019-01-19T12:00:21.860Z,5.40
2019-01-19T12:02:50.562Z,5.40
2019-01-19T12:05:19.871Z,5.50
2019-01-19T12:07:48.568Z,5.50
2019-01-19T12:10:19.377Z,5.50
2019-01-19T12:12:48.120Z,5.50
2019-01-19T12:15:16.916Z,5.50
2019-01-19T12:17:45.733Z,5.40
2019-01-19T12:20:19.810Z,5.40
2019-01-19T12:22:48.542Z,5.40
2019-01-19T12:25:20.009Z,5.40
2019-01-19T12:27:48.685Z,5.30
2019-01-19T12:30:19.592Z,5.30
2019-01-19T12:32:48.225Z,5.30
2019-01-19T12:35:17.056Z,5.40
2019-01-19T12:37:45.624Z,5.40
2019-01-19T12:40:19.250Z,5.40
2019-01-19T12:42:49.049Z,5.30
2019-01-19T12:45:23.463Z,5.20
2019-01-19T12:47:52.430Z,5.20
2019-01-19T12:50:23.710Z,5.10
2019-01-19T12:52:53.185Z,5.00
2019-01-19T12:55:22.677Z,4.90
2019-01-19T12:57:51.243Z,4.90
2019-01-19T13:00:27.488Z,4.90
2019-01-19T13:02:56.744Z,4.80
2019-01-19T13:05:28.373Z,4.70
2019-01-19T13:07:56.940Z,4.70
2019-01-19T13:10:34.498Z,4.70
2019-01-19T13:13:04.294Z,4.70
2019-01-19T13:15:50.968Z,4.80
2019-01-19T13:18:27.848Z,4.80
2019-01-19T13:21:32.431Z,4.70
2019-01-19T13:24:15.685Z,4.70
2019-01-19T13:27:05.121Z,4.70
2019-01-19T13:29:45.156Z,4.70
2019-01-19T13:32:19.564Z,4.60
2019-01-19T13:35:00.027Z,4.60
2019-01-19T13:37:37.660Z,4.50
2019-01-19T13:40:37.793Z,4.50
2019-01-19T13:43:35.033Z,4.50
2019-01-19T13:46:09.243Z,4.50
2019-01-19T13:48:43.922Z,4.40
2019-01-19T13:51:21.233Z,4.40
2019-01-19T13:53:58.695Z,4.40
2019-01-19T13:56:46.515Z,4.30
2019-01-19T13:59:18.312Z,4.30
2019-01-19T14:01:58.645Z,4.20
2019-01-19T14:04:36.002Z,4.20
2019-01-19T14:07:19.498Z,4.10
2019-01-19T14:09:51.160Z,4.00
2019-01-19T14:12:37.672Z,4.00
2019-01-19T14:15:09.370Z,3.90
2019-01-19T14:17:52.946Z,3.90
2019-01-19T14:20:39.394Z,3.80
2019-01-19T14:23:32.268Z,3.80
2019-01-19T14:26:12.823Z,3.80
2019-01-19T14:29:09.810Z,3.80
2019-01-19T14:31:56.297Z,3.90
2019-01-19T14:34:33.654Z,3.90
2019-01-19T14:37:08.011Z,3.80
2019-01-19T14:39:45.422Z,3.80
2019-01-19T14:42:28.781Z,3.80
2019-01-19T14:45:06.425Z,3.70
2019-01-19T14:47:43.660Z,3.60
2019-01-19T14:50:39.238Z,3.60
2019-01-19T14:53:13.637Z,3.50
2019-01-19T14:55:56.905Z,3.40
2019-01-19T14:58:28.596Z,3.30
2019-01-19T15:01:06.088Z,3.30
2019-01-19T15:03:37.756Z,3.20
2019-01-19T15:06:17.988Z,3.20
2019-01-19T15:09:03.914Z,3.10
2019-01-19T15:11:51.014Z,3.10
2019-01-19T15:14:57.575Z,3.10
2019-01-19T15:18:03.198Z,3.10
2019-01-19T15:20:46.574Z,3.00
2019-01-19T15:23:20.973Z,3.00
2019-01-19T15:26:08.898Z,2.90
2019-01-19T15:28:52.155Z,2.80
2019-01-19T15:31:40.206Z,2.90
2019-01-19T15:34:33.918Z,2.80
2019-01-19T15:37:22.176Z,2.80
2019-01-19T15:39:56.663Z,2.70
2019-01-19T15:42:34.225Z,2.70
2019-01-19T15:45:29.877Z,2.60
2019-01-19T15:48:06.902Z,2.50
2019-01-19T15:50:59.087Z,2.50
2019-01-19T15:53:36.446Z,2.40
2019-01-19T15:56:39.472Z,2.40
2019-01-19T15:59:17.157Z,2.30
2019-01-19T16:02:11.276Z,2.30
2019-01-19T16:04:54.632Z,2.30
2019-01-19T16:07:42.298Z,2.30
2019-01-19T16:10:25.046Z,2.30
2019-01-19T16:13:02.472Z,2.30
2019-01-19T16:15:53.657Z,2.30
2019-01-19T16:18:46.193Z,2.30
2019-01-19T16:21:23.816Z,2.30
2019-01-19T16:23:58.241Z,2.30
2019-01-19T16:26:52.120Z,2.30
2019-01-19T16:29:33.008Z,2.20
2019-01-19T16:32:10.246Z,2.10
2019-01-19T16:34:44.532Z,2.10
2019-01-19T16:37:19.109Z,2.10
2019-01-19T16:40:14.672Z,2.10
2019-01-19T16:43:04.269Z,2.10
2019-01-19T16:45:38.604Z,2.00
2019-01-19T16:48:27.633Z,2.00
2019-01-19T16:51:05.480Z,1.90
2019-01-19T16:53:42.969Z,1.90
2019-01-19T16:56:14.601Z,1.90
2019-01-19T16:59:02.780Z,1.90
2019-01-19T17:01:34.437Z,1.90
2019-01-19T17:04:25.324Z,1.90
2019-01-19T17:07:02.701Z,1.90
2019-01-19T17:09:45.994Z,1.90
2019-01-19T17:12:39.981Z,1.90
2019-01-19T17:15:46.798Z,1.80
2019-01-19T17:18:23.585Z,1.80
2019-01-19T17:21:10.215Z,1.80
2019-01-19T17:23:41.959Z,1.80
2019-01-19T17:26:22.001Z,1.70
2019-01-19T17:28:53.681Z,1.70
2019-01-19T17:31:28.052Z,1.80
2019-01-19T17:34:15.027Z,1.80
2019-01-19T17:36:52.505Z,1.70
2019-01-19T17:39:42.177Z,1.70
2019-01-19T17:42:16.474Z,1.70
2019-01-19T17:44:50.948Z,1.60
2019-01-19T17:47:31.252Z,1.60
2019-01-19T17:50:14.551Z,1.60
2019-01-19T17:52:46.241Z,1.60
2019-01-19T17:55:26.747Z,1.60
2019-01-19T17:58:26.227Z,1.60
2019-01-19T18:01:21.905Z,1.60
2019-01-19T18:04:11.367Z,1.60
2019-01-19T18:06:54.417Z,1.60
2019-01-19T18:09:47.350Z,1.60
2019-01-19T18:12:24.381Z,1.60
2019-01-19T18:15:10.761Z,1.60
2019-01-19T18:17:42.396Z,1.60
2019-01-19T18:20:29.159Z,1.60
2019-01-19T18:23:06.452Z,1.60
2019-01-19T18:25:53.130Z,1.50
2019-01-19T18:28:33.489Z,1.50
2019-01-19T18:31:17.349Z,1.40
2019-01-19T18:33:48.988Z,1.40
2019-01-19T18:36:29.057Z,1.40
2019-01-19T18:39:08.967Z,1.40
2019-01-19T18:41:46.386Z,1.30
2019-01-19T18:44:41.825Z,1.40
2019-01-19T18:47:31.453Z,1.40
2019-01-19T18:50:26.762Z,1.30
2019-01-19T18:53:07.081Z,1.40
2019-01-19T18:55:44.543Z,1.30
2019-01-19T18:58:40.034Z,1.40
2019-01-19T19:01:14.550Z,1.30
2019-01-19T19:04:02.808Z,1.30
2019-01-19T19:06:51.896Z,1.30
2019-01-19T19:09:43.104Z,1.20
2019-01-19T19:12:17.712Z,1.20
2019-01-19T19:14:49.359Z,1.20
2019-01-19T19:17:21.048Z,1.10
2019-01-19T19:19:55.612Z,1.10
2019-01-19T19:22:32.641Z,1.10
2019-01-19T19:25:20.624Z,1.20
2019-01-19T19:27:52.313Z,1.20
2019-01-19T19:30:43.336Z,1.30
2019-01-19T19:33:23.578Z,1.40
2019-01-19T19:36:26.745Z,1.50
2019-01-19T19:39:00.855Z,1.60
2019-01-19T19:41:53.828Z,1.60
2019-01-19T19:44:34.199Z,1.50
2019-01-19T19:47:11.533Z,1.40
2019-01-19T19:49:43.195Z,1.40
2019-01-19T19:52:11.780Z,1.40
2019-01-19T19:54:41.911Z,1.30
2019-01-19T19:57:10.551Z,1.30
2019-01-19T19:59:39.386Z,1.30
2019-01-19T20:02:08.027Z,1.30
2019-01-19T20:04:36.746Z,1.20
2019-01-19T20:07:05.803Z,1.20
2019-01-19T20:09:34.378Z,1.10
2019-01-19T20:12:04.731Z,1.20
2019-01-19T20:14:33.364Z,1.20
2019-01-19T20:17:02.027Z,1.20
2019-01-19T20:19:33.062Z,1.10
2019-01-19T20:22:01.875Z,1.10
2019-01-19T20:24:30.482Z,1.00
2019-01-19T20:26:59.086Z,0.90
2019-01-19T20:29:27.682Z,0.90
2019-01-19T20:31:57.064Z,0.80
2019-01-19T20:34:25.654Z,0.80
2019-01-19T20:36:54.276Z,0.70
2019-01-19T20:39:23.073Z,0.70
2019-01-19T20:41:51.662Z,0.70
2019-01-19T20:44:20.360Z,0.70
2019-01-19T20:46:48.990Z,0.70
2019-01-19T20:49:17.570Z,0.60
2019-01-19T20:51:46.233Z,0.60
2019-01-19T20:54:14.845Z,0.50
2019-01-19T20:56:43.412Z,0.50
2019-01-19T20:59:12.054Z,0.50
2019-01-19T21:01:40.676Z,0.40
2019-01-19T21:04:15.612Z,0.30
2019-01-19T21:06:39.561Z,0.30
2019-01-19T21:09:10.317Z,0.30
2019-01-19T21:11:39.107Z,0.30
2019-01-19T21:14:07.745Z,0.20
2019-01-19T21:16:36.323Z,0.30
2019-01-19T21:19:05.771Z,0.30
2019-01-19T21:21:34.444Z,0.30
2019-01-19T21:24:03.082Z,0.30
2019-01-19T21:26:31.703Z,0.20
2019-01-19T21:29:00.311Z,0.20
2019-01-19T21:31:28.878Z,0.20
2019-01-19T21:33:57.498Z,0.20
2019-01-19T21:36:26.067Z,0.20
2019-01-19T21:38:54.705Z,0.20
2019-01-19T21:41:23.292Z,0.20
2019-01-19T21:43:51.861Z,0.20
2019-01-19T21:46:20.496Z,0.20
2019-01-19T21:48:49.053Z,0.10
2019-01-19T21:51:17.634Z,0.10
2019-01-19T21:53:46.247Z,0.00
2019-01-19T21:56:14.827Z,0.00
2019-01-19T21:58:43.406Z,-0.10
2019-01-19T22:01:12.009Z,-0.10
2019-01-19T22:03:40.607Z,-0.10
2019-01-19T22:06:09.191Z,-0.20
2019-01-19T22:08:37.815Z,-0.10
2019-01-19T22:11:06.401Z,-0.10
2019-01-19T22:13:34.998Z,-0.10
2019-01-19T22:16:03.689Z,-0.10
2019-01-19T22:18:32.272Z,-0.10
2019-01-19T22:21:00.853Z,-0.10
2019-01-19T22:23:29.608Z,-0.10
2019-01-19T22:25:58.257Z,-0.20
2019-01-19T22:28:26.820Z,-0.20
2019-01-19T22:30:55.449Z,-0.20
2019-01-19T22:33:24.624Z,-0.20
2019-01-19T22:35:53.206Z,-0.20
2019-01-19T22:38:21.823Z,-0.20
2019-01-19T22:40:53.682Z,-0.20
2019-01-19T22:43:20.643Z,-0.20
2019-01-19T22:45:49.298Z,-0.20
2019-01-19T22:48:18.008Z,-0.20
2019-01-19T22:50:46.565Z,-0.20
2019-01-19T22:53:15.189Z,-0.20
2019-01-19T22:55:43.766Z,-0.20
2019-01-19T22:58:12.418Z,-0.20
2019-01-19T23:00:51.671Z,-0.30
2019-01-19T23:03:20.311Z,-0.20
2019-01-19T23:05:49.184Z,-0.20
2019-01-19T23:08:17.823Z,-0.20
2019-01-19T23:10:46.603Z,-0.20
2019-01-19T23:13:15.253Z,-0.20
2019-01-19T23:15:43.875Z,-0.30
2019-01-19T23:18:12.481Z,-0.40
2019-01-19T23:20:41.139Z,-0.40
2019-01-19T23:23:09.870Z,-0.40
2019-01-19T23:25:38.594Z,-0.40
2019-01-19T23:28:07.232Z,-0.40
2019-01-19T23:30:35.804Z,-0.40
2019-01-19T23:33:04.516Z,-0.40
2019-01-19T23:35:34.048Z,-0.40
2019-01-19T23:38:02.730Z,-0.40
2019-01-19T23:40:31.343Z,-0.50
2019-01-19T23:42:59.925Z,-0.50
2019-01-19T23:45:28.511Z,-0.50
2019-01-19T23:47:57.339Z,-0.50
2019-01-19T23:50:26.091Z,-0.50
2019-01-19T23:52:54.662Z,-0.50
2019-01-19T23:55:23.299Z,-0.50
2019-01-19T23:57:51.887Z,-0.40
